Time;durP1;ratioP1;P1;durP2;ratioP2;P2;SDS_P1;SDS_P2;PMS_P1;PMS_P2;Temp;Humidity;BMP_temperature;BMP_pressure;BME280_temperature;BME280_humidity;BME280_pressure;Samples;Min_cycle;Max_cycle;Signal;HPM_P1;HPM_P2
2022/08/07 05:04:08;;;;;;;;;;;15.50;80.50;;;;;;4889477;27;19920;-75
2022/08/07 05:06:53;;;;;;;;;;;15.60;81.50;;;;;;4874749;29;19915;-76
2022/08/07 05:09:41;;;;;;;;;;;15.70;80.50;;;;;;4874883;29;19907;-75
2022/08/07 05:12:09;;;;;;;;;;;15.80;81.80;;;;;;4874412;29;20193;-75
2022/08/07 05:14:37;;;;;;;;;;;15.90;82.00;;;;;;4874953;29;19914;-75
2022/08/07 05:17:06;;;;;;;;;;;16.10;81.70;;;;;;4872271;29;19987;-75
2022/08/07 05:19:37;;;;;;;;;;;16.10;81.70;;;;;;4872735;29;19991;-76
2022/08/07 05:22:05;;;;;;;;;;;16.20;81.90;;;;;;4889132;29;19912;-77
2022/08/07 05:24:36;;;;;;;;;;;16.40;81.60;;;;;;4873479;29;19912;-76
2022/08/07 05:27:03;;;;;;;;;;;16.50;81.40;;;;;;4856852;29;20189;-75
2022/08/07 05:29:29;;;;;;;;;;;16.60;81.20;;;;;;4872741;29;19919;-76
2022/08/07 05:31:56;;;;;;;;;;;16.70;81.40;;;;;;4870770;29;19916;-76
2022/08/07 05:34:27;;;;;;;;;;;16.80;81.60;;;;;;4856400;29;19934;-76
2022/08/07 05:36:54;;;;;;;;;;;16.80;81.10;;;;;;4870886;29;19938;-75
2022/08/07 05:39:34;;;;;;;;;;;16.90;81.30;;;;;;4888355;29;20127;-74
2022/08/07 05:42:02;;;;;;;;;;;17.00;81.30;;;;;;4872199;29;19975;-74
2022/08/07 05:44:29;;;;;;;;;;;17.00;81.30;;;;;;4873085;29;20013;-75
2022/08/07 05:46:55;;;;;;;;;;;17.10;81.30;;;;;;4870275;29;19931;-78
2022/08/07 05:49:24;;;;;;;;;;;17.20;80.60;;;;;;4855635;29;20229;-76
2022/08/07 05:51:51;;;;;;;;;;;17.30;80.70;;;;;;4886543;29;19912;-76
2022/08/07 05:54:20;;;;;;;;;;;17.30;80.70;;;;;;4870742;29;19912;-76
2022/08/07 05:56:46;;;;;;;;;;;17.40;81.10;;;;;;4886119;29;20196;-76
2022/08/07 05:59:14;;;;;;;;;;;17.50;81.20;;;;;;4870586;29;19976;-75
2022/08/07 06:01:42;;;;;;;;;;;17.50;81.30;;;;;;4872183;29;19938;-76
2022/08/07 06:04:09;;;;;;;;;;;17.70;81.30;;;;;;4905129;29;19911;-75
2022/08/07 06:06:38;;;;;;;;;;;17.80;81.20;;;;;;4888564;29;19919;-75
2022/08/07 06:09:05;;;;;;;;;;;17.90;80.70;;;;;;4905730;29;20196;-75
2022/08/07 06:11:35;;;;;;;;;;;18.00;81.00;;;;;;4889196;29;20141;-75
2022/08/07 06:14:03;;;;;;;;;;;18.00;80.70;;;;;;4888153;29;19952;-75
2022/08/07 06:16:32;;;;;;;;;;;18.00;81.20;;;;;;4903090;29;20086;-75
2022/08/07 06:19:00;;;;;;;;;;;18.10;82.00;;;;;;4887370;29;20105;-75
2022/08/07 06:21:26;;;;;;;;;;;18.10;81.70;;;;;;4903582;29;19912;-75
2022/08/07 06:23:52;;;;;;;;;;;18.30;81.70;;;;;;4904262;29;19979;-77
2022/08/07 06:26:18;;;;;;;;;;;18.40;81.60;;;;;;4903590;29;19912;-77
2022/08/07 06:28:47;;;;;;;;;;;18.50;81.30;;;;;;4902513;29;20003;-76
2022/08/07 06:31:13;;;;;;;;;;;18.60;81.10;;;;;;4902545;29;20138;-75
2022/08/07 06:33:39;;;;;;;;;;;18.70;80.80;;;;;;4901369;29;19915;-79
2022/08/07 06:36:05;;;;;;;;;;;18.80;80.70;;;;;;4900619;29;23210;-76
2022/08/07 06:38:31;;;;;;;;;;;18.90;79.80;;;;;;4870423;29;19916;-77
2022/08/07 06:40:58;;;;;;;;;;;19.10;79.80;;;;;;4886173;29;19914;-75
2022/08/07 06:43:25;;;;;;;;;;;19.20;80.00;;;;;;4869958;29;20237;-77
2022/08/07 06:46:05;;;;;;;;;;;19.20;80.20;;;;;;4883564;29;20234;-76
2022/08/07 06:48:33;;;;;;;;;;;19.40;80.30;;;;;;4869362;29;19911;-76
2022/08/07 06:51:01;;;;;;;;;;;19.40;80.40;;;;;;4883438;29;19970;-77
2022/08/07 06:53:28;;;;;;;;;;;19.60;80.50;;;;;;4882705;29;20170;-76
2022/08/07 06:55:54;;;;;;;;;;;19.60;80.30;;;;;;4883971;29;19916;-76
2022/08/07 06:58:21;;;;;;;;;;;19.80;80.60;;;;;;4867875;29;20224;-76
2022/08/07 07:00:56;;;;;;;;;;;20.00;80.90;;;;;;4883877;29;19911;-75
2022/08/07 07:03:23;;;;;;;;;;;20.10;80.20;;;;;;4879043;29;19943;-77
2022/08/07 07:05:48;;;;;;;;;;;20.30;80.10;;;;;;4881902;29;19912;-74
2022/08/07 07:08:14;;;;;;;;;;;20.40;79.80;;;;;;4880712;29;20197;-77
2022/08/07 07:10:40;;;;;;;;;;;20.40;79.80;;;;;;4881110;29;19918;-75
2022/08/07 07:13:05;;;;;;;;;;;20.60;79.00;;;;;;4882014;29;20071;-80
2022/08/07 07:15:33;;;;;;;;;;;20.60;79.20;;;;;;4862837;29;19978;-78
2022/08/07 07:18:04;;;;;;;;;;;20.80;79.10;;;;;;4879604;29;19982;-77
2022/08/07 07:20:35;;;;;;;;;;;20.90;78.20;;;;;;4880642;29;19935;-77
2022/08/07 07:23:04;;;;;;;;;;;20.90;77.90;;;;;;4880815;29;19919;-78
2022/08/07 07:25:30;;;;;;;;;;;21.00;77.70;;;;;;4862499;29;19911;-77
2022/08/07 07:28:11;;;;;;;;;;;21.20;77.20;;;;;;4878700;29;19918;-79
2022/08/07 07:30:39;;;;;;;;;;;21.30;76.00;;;;;;4885637;29;19918;-81
2022/08/07 07:33:05;;;;;;;;;;;21.50;75.10;;;;;;4882580;29;20208;-78
2022/08/07 07:35:44;;;;;;;;;;;21.70;74.10;;;;;;4853730;29;19920;-78
2022/08/07 07:38:12;;;;;;;;;;;21.80;72.70;;;;;;4883419;29;19919;-78
2022/08/07 07:40:39;;;;;;;;;;;22.10;71.50;;;;;;4885910;29;19919;-79
2022/08/07 07:43:08;;;;;;;;;;;22.10;70.40;;;;;;4885269;29;19912;-79
2022/08/07 07:45:34;;;;;;;;;;;22.30;70.20;;;;;;4884417;29;19975;-78
2022/08/07 07:48:03;;;;;;;;;;;22.50;70.00;;;;;;4883069;29;19950;-77
2022/08/07 07:50:30;;;;;;;;;;;22.70;69.40;;;;;;4856130;29;19922;-76
2022/08/07 07:52:56;;;;;;;;;;;22.60;69.00;;;;;;4881167;29;19959;-76
2022/08/07 07:55:22;;;;;;;;;;;22.60;68.10;;;;;;4882617;29;19915;-77
2022/08/07 07:57:49;;;;;;;;;;;22.70;68.20;;;;;;4881452;29;19950;-79
2022/08/07 08:00:15;;;;;;;;;;;22.70;68.30;;;;;;4865396;29;19911;-78
2022/08/07 08:02:41;;;;;;;;;;;22.80;67.70;;;;;;4871229;29;19911;-78
2022/08/07 08:05:07;;;;;;;;;;;22.90;66.60;;;;;;4893548;29;20091;-76
2022/08/07 08:07:35;;;;;;;;;;;23.00;65.90;;;;;;4885955;29;19934;-80
2022/08/07 08:10:02;;;;;;;;;;;23.00;64.90;;;;;;4886229;29;19911;-79
2022/08/07 08:12:28;;;;;;;;;;;23.10;64.70;;;;;;4871039;29;19908;-77
2022/08/07 08:14:53;;;;;;;;;;;23.10;65.00;;;;;;4889754;29;19915;-77
2022/08/07 08:17:20;;;;;;;;;;;23.10;64.60;;;;;;4883320;29;19919;-79
2022/08/07 08:20:12;;;;;;;;;;;23.20;64.50;;;;;;4870263;29;19912;-78
2022/08/07 08:28:27;;;;;;;;;;;23.10;63.60;;;;;;4902638;29;19926;-75
2022/08/07 08:30:58;;;;;;;;;;;23.20;63.80;;;;;;4885528;29;20024;-79
2022/08/07 08:33:26;;;;;;;;;;;23.20;63.40;;;;;;4884403;29;19967;-77
2022/08/07 08:35:54;;;;;;;;;;;23.40;62.80;;;;;;4901882;29;19919;-78
2022/08/07 08:38:22;;;;;;;;;;;23.50;61.70;;;;;;4868106;29;19911;-78
2022/08/07 08:41:02;;;;;;;;;;;23.50;61.30;;;;;;4885235;29;19918;-77
2022/08/07 08:43:46;;;;;;;;;;;23.50;61.40;;;;;;4904597;29;19911;-77
2022/08/07 08:46:49;;;;;;;;;;;23.60;61.50;;;;;;4904160;29;20137;-78
2022/08/07 08:49:33;;;;;;;;;;;23.70;60.90;;;;;;4904668;29;20272;-76
2022/08/07 08:52:17;;;;;;;;;;;23.90;59.10;;;;;;4905589;29;19928;-78
2022/08/07 08:54:58;;;;;;;;;;;23.90;59.40;;;;;;4905794;29;19921;-77
2022/08/07 08:57:33;;;;;;;;;;;24.00;59.00;;;;;;4894384;29;19926;-79
2022/08/07 09:00:05;;;;;;;;;;;24.10;58.30;;;;;;4906619;29;19950;-79
2022/08/07 09:02:46;;;;;;;;;;;24.10;57.50;;;;;;4906103;29;19927;-78
2022/08/07 09:05:30;;;;;;;;;;;24.10;57.40;;;;;;4887617;29;20183;-77
2022/08/07 09:07:58;;;;;;;;;;;24.20;57.20;;;;;;4890372;29;19912;-79
2022/08/07 09:10:34;;;;;;;;;;;24.30;56.40;;;;;;4906817;29;19951;-78
2022/08/07 09:13:02;;;;;;;;;;;24.30;56.20;;;;;;4906872;29;19911;-78
2022/08/07 09:16:00;;;;;;;;;;;24.40;56.30;;;;;;4905575;29;20100;-79
2022/08/07 09:18:34;;;;;;;;;;;24.50;56.10;;;;;;4850916;29;20209;-79
2022/08/07 09:21:27;;;;;;;;;;;24.40;56.10;;;;;;4904942;29;20267;-79
2022/08/07 09:24:11;;;;;;;;;;;24.30;56.00;;;;;;4870201;29;20074;-79
2022/08/07 09:26:37;;;;;;;;;;;24.40;56.20;;;;;;4889525;29;19912;-78
2022/08/07 09:29:21;;;;;;;;;;;24.40;55.60;;;;;;4886464;29;19927;-77
2022/08/07 09:31:54;;;;;;;;;;;24.40;55.90;;;;;;4869237;29;19912;-78
2022/08/07 09:34:26;;;;;;;;;;;24.50;55.50;;;;;;4903880;29;19916;-79
2022/08/07 09:37:44;;;;;;;;;;;24.60;55.00;;;;;;4857549;29;20112;-78
2022/08/07 09:43:39;;;;;;;;;;;24.60;54.20;;;;;;4855172;29;19955;-77
2022/08/07 09:46:24;;;;;;;;;;;24.60;53.70;;;;;;4853113;29;20181;-80
2022/08/07 09:49:14;;;;;;;;;;;24.70;54.50;;;;;;4876191;29;19912;-78
2022/08/07 09:51:49;;;;;;;;;;;24.80;53.90;;;;;;4885824;29;19918;-77
2022/08/07 09:54:39;;;;;;;;;;;24.90;53.90;;;;;;4893630;29;19912;-80
2022/08/07 09:57:14;;;;;;;;;;;25.10;53.80;;;;;;4885437;29;19919;-80
2022/08/07 09:59:49;;;;;;;;;;;25.20;53.00;;;;;;4906941;29;19949;-80
2022/08/07 10:02:35;;;;;;;;;;;25.30;52.30;;;;;;4903945;29;19978;-77
2022/08/07 10:05:04;;;;;;;;;;;25.30;52.00;;;;;;4887868;29;20189;-77
2022/08/07 10:07:40;;;;;;;;;;;25.30;51.30;;;;;;4888603;29;19912;-76
2022/08/07 10:10:20;;;;;;;;;;;25.10;51.10;;;;;;4890178;29;19975;-81
2022/08/07 10:13:35;;;;;;;;;;;25.10;51.50;;;;;;4903824;29;19919;-79
2022/08/07 10:16:19;;;;;;;;;;;25.00;51.50;;;;;;4879608;29;20205;-79
2022/08/07 10:19:07;;;;;;;;;;;25.10;51.90;;;;;;4887306;29;19979;-79
2022/08/07 10:21:32;;;;;;;;;;;25.20;52.10;;;;;;4872705;29;20265;-80
2022/08/07 10:24:07;;;;;;;;;;;25.30;51.50;;;;;;4903890;29;19923;-81
2022/08/07 10:26:39;;;;;;;;;;;25.40;51.10;;;;;;4902580;29;19950;-79
2022/08/07 10:29:04;;;;;;;;;;;25.40;50.40;;;;;;4904386;29;19911;-79
2022/08/07 10:31:51;;;;;;;;;;;25.50;51.30;;;;;;4902487;29;19955;-80
2022/08/07 10:34:17;;;;;;;;;;;25.60;51.10;;;;;;4902165;29;19919;-77
2022/08/07 10:37:10;;;;;;;;;;;25.70;50.70;;;;;;4904066;29;19920;-82
2022/08/07 10:39:36;;;;;;;;;;;25.80;50.10;;;;;;4890066;29;19911;-80
2022/08/07 10:42:20;;;;;;;;;;;25.80;50.00;;;;;;4863921;29;19990;-81
2022/08/07 10:45:00;;;;;;;;;;;25.70;50.60;;;;;;4889444;29;20235;-78
2022/08/07 10:47:38;;;;;;;;;;;25.70;50.80;;;;;;4870307;29;20225;-81
2022/08/07 10:50:16;;;;;;;;;;;25.70;49.60;;;;;;4888593;29;19995;-78
2022/08/07 10:52:54;;;;;;;;;;;25.60;51.30;;;;;;4888404;29;19912;-79
2022/08/07 10:55:26;;;;;;;;;;;25.50;51.40;;;;;;4902873;29;19919;-80
2022/08/07 10:58:03;;;;;;;;;;;25.60;51.20;;;;;;4903719;29;19921;-77
2022/08/07 11:07:58;;;;;;;;;;;26.10;50.80;;;;;;4760549;30;20175;-82
2022/08/07 11:11:03;;;;;;;;;;;26.30;51.10;;;;;;4716969;30;19957;-78
2022/08/07 11:17:04;;;;;;;;;;;26.50;50.50;;;;;;4709400;30;20245;-84
2022/08/07 11:27:11;;;;;;;;;;;26.90;50.10;;;;;;4687516;30;19974;-83
2022/08/07 11:30:29;;;;;;;;;;;27.10;49.60;;;;;;4698005;30;19922;-80
2022/08/07 11:33:05;;;;;;;;;;;27.50;48.90;;;;;;4715033;30;20101;-80
2022/08/07 11:35:49;;;;;;;;;;;28.20;48.30;;;;;;4785898;29;19924;-79
2022/08/07 11:38:34;;;;;;;;;;;28.60;47.40;;;;;;4802872;29;20234;-81
2022/08/07 11:41:16;;;;;;;;;;;29.10;47.50;;;;;;4777511;29;19949;-83
2022/08/07 11:44:19;;;;;;;;;;;29.90;47.10;;;;;;4748042;29;20025;-77
2022/08/07 11:47:09;;;;;;;;;;;30.90;45.70;;;;;;4792506;29;19913;-79
2022/08/07 11:49:38;;;;;;;;;;;31.90;44.90;;;;;;4870629;29;20142;-80
2022/08/07 11:52:18;;;;;;;;;;;32.60;44.50;;;;;;4884631;29;19912;-82
2022/08/07 11:55:22;;;;;;;;;;;33.30;43.70;;;;;;4885800;29;20753;-79
2022/08/07 11:58:11;;;;;;;;;;;34.30;43.00;;;;;;4860839;29;19920;-79
2022/08/07 12:01:06;;;;;;;;;;;34.80;42.10;;;;;;4723243;29;19944;-83
2022/08/07 12:14:03;;;;;;;;;;;37.00;40.30;;;;;;4809270;29;19920;-80
2022/08/07 12:16:39;;;;;;;;;;;37.00;40.30;;;;;;4807798;29;19920;-80
2022/08/07 12:19:29;;;;;;;;;;;37.70;39.80;;;;;;4867165;29;19918;-81
2022/08/07 12:22:09;;;;;;;;;;;37.90;39.00;;;;;;4865024;29;19942;-79
2022/08/07 12:28:01;;;;;;;;;;;39.10;39.10;;;;;;4874066;29;19918;-83
2022/08/07 12:30:30;;;;;;;;;;;39.70;38.50;;;;;;4858229;29;19943;-79
2022/08/07 12:33:08;;;;;;;;;;;39.70;38.00;;;;;;4846373;29;19930;-84
2022/08/07 12:35:34;;;;;;;;;;;40.30;37.90;;;;;;4863660;29;19912;-82
2022/08/07 12:38:17;;;;;;;;;;;;;;;;;;;;;
2022/08/07 12:44:32;;;;;;;;;;;41.90;36.90;;;;;;4870848;29;19974;-82
2022/08/07 12:47:29;;;;;;;;;;;41.50;37.00;;;;;;4880658;29;19971;-82
2022/08/07 12:50:17;;;;;;;;;;;41.70;37.00;;;;;;4869843;29;20125;-83
2022/08/07 12:53:04;;;;;;;;;;;41.90;37.00;;;;;;4888419;29;19923;-81
2022/08/07 12:55:41;;;;;;;;;;;42.60;36.50;;;;;;4902217;29;19950;-83
2022/08/07 13:02:15;;;;;;;;;;;;;;;;;;;;;
2022/08/07 13:39:14;;;;;;;;;;;46.10;34.00;;;;;;5371303;23;19961;-80
2022/08/07 13:42:01;;;;;;;;;;;44.20;34.80;;;;;;4845724;29;19979;-81
2022/08/07 13:44:47;;;;;;;;;;;45.60;34.90;;;;;;4832333;29;19952;-84
2022/08/07 13:47:40;;;;;;;;;;;46.50;34.70;;;;;;4826192;29;19932;-81
2022/08/07 13:50:37;;;;;;;;;;;46.80;34.30;;;;;;4823228;29;20163;-81
2022/08/07 13:53:18;;;;;;;;;;;47.40;34.60;;;;;;4794072;29;19985;-79
2022/08/07 13:59:01;;;;;;;;;;;46.90;34.00;;;;;;4802874;29;19936;-82
2022/08/07 14:01:31;;;;;;;;;;;47.50;34.30;;;;;;4805007;29;19913;-84
2022/08/07 14:04:26;;;;;;;;;;;48.20;34.80;;;;;;4771765;29;19921;-83
2022/08/07 14:06:59;;;;;;;;;;;49.10;34.00;;;;;;4787515;29;19912;-80
2022/08/07 14:09:43;;;;;;;;;;;49.30;33.60;;;;;;4782772;29;19936;-80
2022/08/07 14:12:45;;;;;;;;;;;48.50;33.30;;;;;;4809651;29;19919;-79
2022/08/07 14:15:35;;;;;;;;;;;48.90;33.10;;;;;;4720844;29;20171;-80
2022/08/07 14:18:15;;;;;;;;;;;47.60;33.10;;;;;;4788301;29;19966;-80
2022/08/07 14:20:49;;;;;;;;;;;48.20;33.30;;;;;;4795082;29;19920;-81
2022/08/07 14:23:37;;;;;;;;;;;47.60;33.30;;;;;;4813934;29;19917;-83
2022/08/07 14:26:27;;;;;;;;;;;47.90;33.70;;;;;;4748666;29;19920;-82
2022/08/07 14:29:12;;;;;;;;;;;48.20;33.60;;;;;;4817645;29;19927;-84
2022/08/07 14:31:50;;;;;;;;;;;49.20;33.40;;;;;;4803060;29;19976;-82
2022/08/07 14:34:22;;;;;;;;;;;50.30;32.90;;;;;;4795310;29;19976;-80
2022/08/07 14:40:09;;;;;;;;;;;49.30;32.10;;;;;;4843805;29;20004;-82
2022/08/07 14:42:55;;;;;;;;;;;48.10;32.80;;;;;;4840672;29;19943;-79
2022/08/07 14:45:35;;;;;;;;;;;48.00;33.30;;;;;;4789248;29;20218;-81
2022/08/07 14:48:12;;;;;;;;;;;47.60;33.10;;;;;;4842741;29;19916;-81
2022/08/07 14:50:45;;;;;;;;;;;45.90;33.50;;;;;;4797901;29;19920;-82
2022/08/07 14:56:55;;;;;;;;;;;46.30;33.90;;;;;;4834359;29;19934;-80
2022/08/07 14:59:25;;;;;;;;;;;44.00;34.40;;;;;;4838793;29;20132;-81
2022/08/07 15:02:06;;;;;;;;;;;44.30;34.60;;;;;;4848104;29;19935;-80
2022/08/07 15:05:04;;;;;;;;;;;44.70;34.70;;;;;;4823002;29;20137;-80
2022/08/07 15:07:33;;;;;;;;;;;44.20;34.50;;;;;;4762825;30;20135;-82
2022/08/07 15:09:59;;;;;;;;;;;43.90;34.20;;;;;;4758865;30;19921;-79
2022/08/07 15:12:33;;;;;;;;;;;43.10;35.20;;;;;;4807194;29;19952;-81
2022/08/07 15:15:08;;;;;;;;;;;44.50;34.90;;;;;;4812930;29;20005;-79
2022/08/07 15:17:43;;;;;;;;;;;46.00;34.80;;;;;;4822996;29;19916;-76
2022/08/07 15:20:11;;;;;;;;;;;47.50;33.30;;;;;;4820270;29;19944;-81
2022/08/07 15:23:22;;;;;;;;;;;46.80;33.30;;;;;;4835054;29;20131;-83
2022/08/07 15:25:53;;;;;;;;;;;46.30;33.40;;;;;;4839607;29;20013;-82
2022/08/07 15:28:25;;;;;;;;;;;46.20;33.20;;;;;;4857604;29;19916;-77
2022/08/07 15:31:17;;;;;;;;;;;47.20;33.50;;;;;;4823438;29;19913;-79
2022/08/07 15:34:12;;;;;;;;;;;48.40;33.00;;;;;;4817730;29;19971;-80
2022/08/07 15:36:40;;;;;;;;;;;48.80;32.70;;;;;;4772198;29;19922;-80
2022/08/07 15:39:13;;;;;;;;;;;48.30;32.80;;;;;;4795068;29;19916;-80
2022/08/07 15:44:53;;;;;;;;;;;47.00;33.10;;;;;;4830197;29;20223;-81
2022/08/07 15:47:26;;;;;;;;;;;46.60;33.60;;;;;;4825921;29;19919;-78
2022/08/07 15:50:15;;;;;;;;;;;46.50;32.90;;;;;;4788680;29;19935;-79
2022/08/07 15:52:43;;;;;;;;;;;47.10;32.60;;;;;;4799393;29;19969;-78
2022/08/07 15:55:11;;;;;;;;;;;46.60;33.40;;;;;;4813887;29;19920;-80
2022/08/07 16:00:41;;;;;;;;;;;46.90;33.20;;;;;;4817280;29;19913;-80
2022/08/07 16:03:19;;;;;;;;;;;47.50;33.00;;;;;;4814030;29;19983;-77
2022/08/07 16:05:47;;;;;;;;;;;47.50;33.20;;;;;;4812381;29;19920;-79
2022/08/07 16:08:20;;;;;;;;;;;46.10;33.00;;;;;;4831069;29;19983;-77
2022/08/07 16:10:48;;;;;;;;;;;46.30;33.20;;;;;;4822701;29;19968;-78
2022/08/07 16:13:45;;;;;;;;;;;45.30;33.60;;;;;;4829151;29;19908;-82
2022/08/07 16:16:18;;;;;;;;;;;45.80;33.60;;;;;;4826228;29;19928;-81
2022/08/07 16:18:53;;;;;;;;;;;46.00;33.70;;;;;;4819903;29;20067;-81
2022/08/07 16:21:28;;;;;;;;;;;45.90;33.40;;;;;;4838481;29;19919;-80
2022/08/07 16:24:32;;;;;;;;;;;45.30;33.30;;;;;;4807868;29;20050;-79
2022/08/07 16:27:17;;;;;;;;;;;45.40;33.50;;;;;;4831193;29;20244;-80
2022/08/07 16:30:02;;;;;;;;;;;45.70;34.00;;;;;;4830808;29;19921;-81
2022/08/07 16:32:40;;;;;;;;;;;46.60;33.60;;;;;;4830082;29;19913;-80
2022/08/07 16:35:08;;;;;;;;;;;46.90;33.70;;;;;;4835825;29;19938;-79
2022/08/07 16:37:43;;;;;;;;;;;47.00;34.00;;;;;;4825982;29;20095;-82
2022/08/07 16:40:31;;;;;;;;;;;46.20;33.20;;;;;;4854514;29;20150;-81
2022/08/07 16:43:06;;;;;;;;;;;45.80;33.40;;;;;;4852859;29;20221;-81
2022/08/07 16:45:46;;;;;;;;;;;46.50;33.80;;;;;;4847792;29;20221;-80
2022/08/07 16:48:40;;;;;;;;;;;46.50;33.20;;;;;;4852051;29;19946;-80
2022/08/07 16:51:40;;;;;;;;;;;46.00;33.40;;;;;;4828108;29;19919;-79
2022/08/07 16:54:25;;;;;;;;;;;45.60;33.50;;;;;;4842440;29;19913;-83
2022/08/07 17:00:23;;;;;;;;;;;41.20;35.20;;;;;;4835400;29;19920;-79
2022/08/07 17:03:12;;;;;;;;;;;38.70;36.80;;;;;;4836355;29;19923;-81
2022/08/07 17:05:41;;;;;;;;;;;37.00;37.80;;;;;;4767703;30;20121;-79
2022/08/07 17:08:07;;;;;;;;;;;35.50;38.70;;;;;;4759479;30;19920;-81
2022/08/07 17:10:53;;;;;;;;;;;34.40;39.50;;;;;;4758804;30;19918;-80
2022/08/07 17:16:28;;;;;;;;;;;33.20;40.30;;;;;;4743403;30;20223;-80
2022/08/07 17:19:16;;;;;;;;;;;32.50;41.30;;;;;;4758273;30;19984;-84
2022/08/07 17:22:12;;;;;;;;;;;;;;;;;;;;;
2022/08/07 17:24:42;;;;;;;;;;;32.00;41.40;;;;;;4759404;30;21517;-79
2022/08/07 17:27:14;;;;;;;;;;;31.80;41.10;;;;;;4751990;30;20015;-79
2022/08/07 17:29:43;;;;;;;;;;;31.50;41.50;;;;;;4727152;30;19915;-78
2022/08/07 17:32:25;;;;;;;;;;;31.00;42.10;;;;;;4730464;30;19945;-81
2022/08/07 17:35:11;;;;;;;;;;;30.70;42.30;;;;;;4709770;30;19926;-82
2022/08/07 17:37:55;;;;;;;;;;;30.50;42.60;;;;;;4743170;30;19950;-83
2022/08/07 17:40:46;;;;;;;;;;;30.40;43.30;;;;;;4743092;30;20115;-80
2022/08/07 17:43:17;;;;;;;;;;;31.50;41.80;;;;;;4798004;29;19913;-79
2022/08/07 17:45:56;;;;;;;;;;;32.70;41.30;;;;;;4814258;29;19970;-84
2022/08/07 17:49:06;;;;;;;;;;;33.60;40.30;;;;;;4830963;29;20240;-83
2022/08/07 17:51:52;;;;;;;;;;;34.40;39.50;;;;;;4833779;29;20210;-81
2022/08/07 17:54:21;;;;;;;;;;;35.00;38.70;;;;;;4819295;29;19963;-80
2022/08/07 17:56:50;;;;;;;;;;;35.20;38.20;;;;;;4818684;29;19921;-81
2022/08/07 17:59:22;;;;;;;;;;;35.00;38.60;;;;;;4835031;29;20008;-80
2022/08/07 18:01:57;;;;;;;;;;;34.40;38.80;;;;;;4816474;29;19913;-80
2022/08/07 18:04:36;;;;;;;;;;;33.20;39.30;;;;;;4816407;29;20179;-79
2022/08/07 18:07:19;;;;;;;;;;;31.90;40.30;;;;;;4798424;29;19925;-79
2022/08/07 18:09:48;;;;;;;;;;;30.80;41.40;;;;;;4830057;29;19929;-80
2022/08/07 18:12:39;;;;;;;;;;;30.00;42.70;;;;;;4817778;29;19913;-79
2022/08/07 18:15:30;;;;;;;;;;;29.50;42.90;;;;;;4817185;29;20205;-81
2022/08/07 18:20:54;;;;;;;;;;;28.60;43.10;;;;;;4817287;29;19920;-80
2022/08/07 18:23:25;;;;;;;;;;;28.20;43.20;;;;;;4817562;29;19929;-79
2022/08/07 18:26:19;;;;;;;;;;;28.00;44.70;;;;;;4817982;29;19924;-81
2022/08/07 18:29:11;;;;;;;;;;;27.80;44.80;;;;;;4804135;29;19913;-80
2022/08/07 18:31:55;;;;;;;;;;;27.60;44.10;;;;;;4814274;29;19995;-80
2022/08/07 18:34:40;;;;;;;;;;;27.40;44.10;;;;;;4816320;29;19919;-79
2022/08/07 18:37:12;;;;;;;;;;;27.20;44.10;;;;;;4833932;29;20121;-81
2022/08/07 18:39:46;;;;;;;;;;;27.00;44.70;;;;;;4843805;29;19988;-81
2022/08/07 18:42:37;;;;;;;;;;;26.90;45.10;;;;;;4834297;29;20094;-80
2022/08/07 18:45:23;;;;;;;;;;;26.70;44.60;;;;;;4834296;29;19916;-80
2022/08/07 18:48:27;;;;;;;;;;;26.60;44.80;;;;;;4850490;29;19912;-80
2022/08/07 18:51:29;;;;;;;;;;;26.50;45.40;;;;;;4824081;29;19912;-79
2022/08/07 18:54:33;;;;;;;;;;;26.30;45.30;;;;;;4812072;29;19913;-80
2022/08/07 18:57:11;;;;;;;;;;;26.10;45.50;;;;;;4781973;29;19941;-80
2022/08/07 19:00:02;;;;;;;;;;;25.90;45.70;;;;;;4794984;29;20127;-79
2022/08/07 19:02:34;;;;;;;;;;;25.70;45.90;;;;;;4826800;29;20017;-80
2022/08/07 19:05:02;;;;;;;;;;;25.60;46.70;;;;;;4849008;29;19912;-80
2022/08/07 19:07:37;;;;;;;;;;;25.50;46.90;;;;;;4818820;29;19912;-80
2022/08/07 19:10:06;;;;;;;;;;;25.40;46.80;;;;;;4828119;29;20243;-79
2022/08/07 19:12:59;;;;;;;;;;;25.30;47.40;;;;;;4839271;29;19912;-81
2022/08/07 19:15:28;;;;;;;;;;;25.20;47.50;;;;;;4854999;29;19916;-80
2022/08/07 19:18:24;;;;;;;;;;;25.10;47.50;;;;;;4838119;29;19936;-76
2022/08/07 19:21:05;;;;;;;;;;;25.00;47.80;;;;;;4849120;29;19939;-80
2022/08/07 19:23:37;;;;;;;;;;;24.90;48.10;;;;;;4834722;29;19912;-79
2022/08/07 19:26:27;;;;;;;;;;;24.80;48.40;;;;;;4847115;29;19948;-79
2022/08/07 19:29:01;;;;;;;;;;;24.60;48.60;;;;;;4823345;29;19912;-78
2022/08/07 19:31:29;;;;;;;;;;;24.50;48.90;;;;;;4843687;29;19944;-77
2022/08/07 19:33:55;;;;;;;;;;;24.30;49.10;;;;;;4846229;29;20003;-77
2022/08/07 19:36:23;;;;;;;;;;;24.20;49.20;;;;;;4847037;29;20127;-77
2022/08/07 19:38:51;;;;;;;;;;;24.20;49.60;;;;;;4847106;29;19920;-78
2022/08/07 19:41:20;;;;;;;;;;;24.00;49.50;;;;;;4847160;29;20169;-77
2022/08/07 19:43:46;;;;;;;;;;;23.90;49.70;;;;;;4846586;29;19913;-77
2022/08/07 19:46:16;;;;;;;;;;;23.90;50.00;;;;;;4845425;29;19913;-77
2022/08/07 19:48:54;;;;;;;;;;;23.80;50.10;;;;;;4845509;29;19992;-76
2022/08/07 19:51:21;;;;;;;;;;;23.60;50.30;;;;;;4844129;29;19912;-76
2022/08/07 19:53:48;;;;;;;;;;;23.50;50.40;;;;;;4831462;29;19912;-78
2022/08/07 19:56:14;;;;;;;;;;;23.40;50.60;;;;;;4864791;29;19991;-78
2022/08/07 19:58:40;;;;;;;;;;;23.40;50.60;;;;;;4865997;29;19952;-77
2022/08/07 20:01:08;;;;;;;;;;;23.30;50.80;;;;;;4863773;29;19908;-76
2022/08/07 20:03:35;;;;;;;;;;;23.30;51.00;;;;;;4854058;29;19947;-77
2022/08/07 20:06:01;;;;;;;;;;;23.20;51.20;;;;;;4846501;29;19980;-77
2022/08/07 20:08:29;;;;;;;;;;;23.20;51.40;;;;;;4846331;29;19920;-76
2022/08/07 20:10:57;;;;;;;;;;;23.10;51.70;;;;;;4847012;29;20060;-76
2022/08/07 20:16:28;;;;;;;;;;;23.00;52.70;;;;;;4825380;29;20094;-79
2022/08/07 20:18:57;;;;;;;;;;;22.80;53.00;;;;;;4842759;29;19913;-79
2022/08/07 20:21:24;;;;;;;;;;;22.80;53.20;;;;;;4813756;29;19917;-77
2022/08/07 20:23:59;;;;;;;;;;;22.80;53.40;;;;;;4810579;29;19912;-76
2022/08/07 20:26:31;;;;;;;;;;;22.70;53.70;;;;;;4827921;29;19961;-80
2022/08/07 20:28:58;;;;;;;;;;;22.60;53.90;;;;;;4792017;29;19912;-77
2022/08/07 20:39:36;;;;;;;;;;;22.30;54.60;;;;;;4716584;30;26672;-81
2022/08/07 20:42:27;;;;;;;;;;;22.20;55.00;;;;;;4716997;30;20204;-81
2022/08/07 20:55:13;;;;;;;;;;;22.10;54.00;;;;;;4678513;30;19934;-79
2022/08/07 20:57:54;;;;;;;;;;;22.00;53.70;;;;;;4676471;30;19923;-81
2022/08/07 21:00:21;;;;;;;;;;;22.00;54.00;;;;;;4695054;30;19922;-81
2022/08/07 21:05:56;;;;;;;;;;;21.80;54.60;;;;;;4761916;30;19978;-80
2022/08/07 21:08:37;;;;;;;;;;;21.70;55.60;;;;;;4760867;30;19966;-82
2022/08/07 21:11:04;;;;;;;;;;;21.60;56.20;;;;;;4750813;30;19922;-80
2022/08/07 21:13:58;;;;;;;;;;;21.50;56.50;;;;;;4795030;29;20133;-80
2022/08/07 21:16:57;;;;;;;;;;;21.50;55.70;;;;;;4835615;29;19979;-81
2022/08/07 21:19:33;;;;;;;;;;;21.40;55.60;;;;;;4790850;29;19912;-81
2022/08/07 21:22:29;;;;;;;;;;;21.40;55.80;;;;;;5066215;27;19921;-81
2022/08/07 21:25:24;;;;;;;;;;;21.40;55.90;;;;;;5062634;28;20019;-81
2022/08/07 21:27:50;;;;;;;;;;;21.40;56.10;;;;;;5062068;28;19909;-80
2022/08/07 21:30:43;;;;;;;;;;;21.30;56.90;;;;;;5061919;28;19909;-81
2022/08/07 21:33:20;;;;;;;;;;;21.20;56.90;;;;;;5042255;28;19928;-80
2022/08/07 21:36:10;;;;;;;;;;;21.20;56.80;;;;;;5061428;28;19943;-80
2022/08/07 21:39:08;;;;;;;;;;;21.20;57.20;;;;;;5037059;28;19913;-81
2022/08/07 21:41:52;;;;;;;;;;;21.10;57.20;;;;;;5010248;28;19921;-81
2022/08/07 21:44:23;;;;;;;;;;;21.00;57.50;;;;;;5059045;28;19949;-81
2022/08/07 21:46:56;;;;;;;;;;;20.90;57.40;;;;;;5041386;28;20148;-81
2022/08/07 21:49:31;;;;;;;;;;;20.90;57.70;;;;;;5057063;28;19972;-81
2022/08/07 21:52:11;;;;;;;;;;;20.90;57.70;;;;;;5041623;28;20210;-80
2022/08/07 21:55:12;;;;;;;;;;;20.90;57.70;;;;;;5062773;28;19920;-81
2022/08/07 21:58:05;;;;;;;;;;;20.80;57.90;;;;;;5002792;28;19922;-80
2022/08/07 22:00:32;;;;;;;;;;;20.70;58.10;;;;;;5037522;28;20199;-81
2022/08/07 22:03:19;;;;;;;;;;;20.70;57.90;;;;;;5026736;28;19909;-80
2022/08/07 22:06:03;;;;;;;;;;;20.70;58.00;;;;;;5039784;28;19913;-82
2022/08/07 22:08:43;;;;;;;;;;;20.60;58.00;;;;;;5055426;28;19913;-81
2022/08/07 22:11:16;;;;;;;;;;;20.50;58.10;;;;;;5055005;28;19913;-80
2022/08/07 22:13:56;;;;;;;;;;;20.40;58.40;;;;;;5069923;28;20207;-80
2022/08/07 22:20:08;;;;;;;;;;;20.10;59.40;;;;;;5029321;28;19968;-80
2022/08/07 22:22:47;;;;;;;;;;;20.00;59.90;;;;;;5044207;28;20207;-80
2022/08/07 22:25:34;;;;;;;;;;;19.90;60.70;;;;;;5070063;28;19913;-81
2022/08/07 22:28:22;;;;;;;;;;;19.70;60.40;;;;;;5043829;28;19927;-81
2022/08/07 22:31:22;;;;;;;;;;;19.70;60.40;;;;;;5052110;28;20199;-81
2022/08/07 22:33:51;;;;;;;;;;;19.60;61.10;;;;;;5020539;28;19913;-83
2022/08/07 22:36:19;;;;;;;;;;;19.60;61.30;;;;;;5035453;28;19914;-81
2022/08/07 22:39:07;;;;;;;;;;;19.50;61.90;;;;;;5047372;28;20047;-81